createdAt,value
2018-12-17T00:00:53.753Z,1.63
2018-12-17T00:03:19.916Z,1.57
2018-12-17T00:05:46.071Z,1.70
2018-12-17T00:08:12.228Z,1.60
2018-12-17T00:10:38.408Z,1.27
2018-12-17T00:13:04.544Z,1.37
2018-12-17T00:15:30.664Z,1.60
2018-12-17T00:17:56.813Z,1.40
2018-12-17T00:20:22.953Z,1.60
2018-12-17T00:22:49.069Z,1.83
2018-12-17T00:25:15.347Z,2.17
2018-12-17T00:27:41.528Z,1.70
2018-12-17T00:30:08.031Z,1.63
2018-12-17T00:32:34.173Z,1.50
2018-12-17T00:35:00.354Z,1.73
2018-12-17T00:37:26.480Z,2.00
2018-12-17T00:39:52.610Z,1.57
2018-12-17T00:42:18.727Z,1.90
2018-12-17T00:44:44.867Z,2.00
2018-12-17T00:47:11.042Z,2.60
2018-12-17T00:49:37.176Z,2.30
2018-12-17T00:52:03.299Z,1.97
2018-12-17T00:54:29.452Z,1.70
2018-12-17T00:56:55.603Z,1.80
2018-12-17T00:59:21.739Z,1.77
2018-12-17T01:01:47.924Z,1.90
2018-12-17T01:04:14.063Z,1.80
2018-12-17T01:06:40.230Z,1.87
2018-12-17T01:09:06.394Z,2.00
2018-12-17T01:11:32.578Z,1.60
2018-12-17T01:13:58.802Z,2.03
2018-12-17T01:16:26.520Z,1.93
2018-12-17T01:18:52.890Z,1.63
2018-12-17T01:21:19.709Z,1.93
2018-12-17T01:23:46.084Z,1.50
2018-12-17T01:26:12.483Z,1.67
2018-12-17T01:28:38.963Z,1.90
2018-12-17T01:31:05.129Z,1.77
2018-12-17T01:33:31.287Z,2.10
2018-12-17T01:35:57.423Z,2.20
2018-12-17T01:38:23.550Z,2.10
2018-12-17T01:40:49.688Z,2.07
2018-12-17T01:43:15.835Z,1.90
2018-12-17T01:45:41.959Z,2.13
2018-12-17T01:48:08.071Z,1.83
2018-12-17T01:50:34.212Z,2.00
2018-12-17T01:53:00.339Z,1.73
2018-12-17T01:55:26.503Z,2.13
2018-12-17T01:57:52.639Z,2.07
2018-12-17T02:00:18.791Z,1.80
2018-12-17T02:02:44.908Z,2.00
2018-12-17T02:05:11.091Z,2.07
2018-12-17T02:07:37.219Z,2.13
2018-12-17T02:10:03.594Z,2.40
2018-12-17T02:12:29.753Z,2.10
2018-12-17T02:14:55.884Z,2.67
2018-12-17T02:17:22.031Z,2.63
2018-12-17T02:19:48.157Z,2.60
2018-12-17T02:22:14.287Z,3.07
2018-12-17T02:24:40.439Z,2.50
2018-12-17T02:27:06.583Z,2.67
2018-12-17T02:29:32.739Z,3.37
2018-12-17T02:31:58.898Z,2.93
2018-12-17T02:34:25.864Z,2.80
2018-12-17T02:36:52.004Z,2.60
2018-12-17T02:39:18.143Z,2.13
2018-12-17T02:41:44.661Z,2.17
2018-12-17T02:44:10.823Z,2.63
2018-12-17T02:46:36.988Z,2.20
2018-12-17T02:49:03.185Z,2.03
2018-12-17T02:51:29.318Z,2.30
2018-12-17T02:53:55.468Z,2.00
2018-12-17T02:56:21.609Z,2.30
2018-12-17T02:58:47.788Z,1.80
2018-12-17T03:01:13.912Z,2.27
2018-12-17T03:03:40.039Z,2.20
2018-12-17T03:06:06.230Z,1.93
2018-12-17T03:08:32.435Z,2.03
2018-12-17T03:10:58.580Z,2.00
2018-12-17T03:13:24.726Z,2.10
2018-12-17T03:15:50.894Z,1.90
2018-12-17T03:18:17.023Z,2.00
2018-12-17T03:20:43.169Z,1.80
2018-12-17T03:23:09.340Z,1.87
2018-12-17T03:25:35.481Z,1.43
2018-12-17T03:28:01.702Z,1.80
2018-12-17T03:30:27.965Z,1.90
2018-12-17T03:32:54.110Z,1.60
2018-12-17T03:35:20.264Z,2.03
2018-12-17T03:37:46.396Z,1.60
2018-12-17T03:40:12.540Z,2.33
2018-12-17T03:42:38.663Z,1.77
2018-12-17T03:45:05.455Z,1.70
2018-12-17T03:47:31.578Z,2.13
2018-12-17T03:49:57.729Z,1.73
2018-12-17T03:52:23.877Z,1.67
2018-12-17T03:54:50.072Z,1.93
2018-12-17T03:57:16.186Z,2.27
2018-12-17T03:59:42.392Z,2.00
2018-12-17T04:02:08.511Z,1.50
2018-12-17T04:04:34.639Z,1.97
2018-12-17T04:07:00.775Z,1.80
2018-12-17T04:09:26.977Z,2.07
2018-12-17T04:11:53.095Z,1.73
2018-12-17T04:14:19.241Z,1.70
2018-12-17T04:16:45.402Z,1.87
2018-12-17T04:19:11.530Z,1.63
2018-12-17T04:21:37.669Z,1.97
2018-12-17T04:24:03.826Z,1.93
2018-12-17T04:26:29.956Z,2.20
2018-12-17T04:28:56.113Z,1.90
2018-12-17T04:31:22.238Z,2.00
2018-12-17T04:33:48.401Z,1.70
2018-12-17T04:36:14.553Z,2.40
2018-12-17T04:38:40.676Z,1.80
2018-12-17T04:41:06.813Z,2.33
2018-12-17T04:43:32.933Z,2.00
2018-12-17T04:45:59.057Z,2.10
2018-12-17T04:48:25.188Z,1.90
2018-12-17T04:50:51.365Z,1.80
2018-12-17T04:53:17.476Z,2.00
2018-12-17T04:55:43.616Z,1.87
2018-12-17T04:58:09.895Z,1.90
2018-12-17T05:00:36.022Z,1.90
2018-12-17T05:03:02.218Z,2.70
2018-12-17T05:05:28.417Z,2.10
2018-12-17T05:07:54.550Z,3.53
2018-12-17T05:10:20.690Z,2.50
2018-12-17T05:12:46.810Z,2.00
2018-12-17T05:15:12.973Z,2.47
2018-12-17T05:17:39.117Z,1.90
2018-12-17T05:20:05.456Z,1.90
2018-12-17T05:22:31.571Z,2.03
2018-12-17T05:24:57.719Z,2.17
2018-12-17T05:27:23.835Z,2.13
2018-12-17T05:29:49.965Z,2.10
2018-12-17T05:32:16.095Z,2.30
2018-12-17T05:34:42.244Z,2.47
2018-12-17T05:37:08.399Z,2.10
2018-12-17T05:39:34.523Z,2.10
2018-12-17T05:42:00.640Z,1.97
2018-12-17T05:44:26.772Z,2.13
2018-12-17T05:46:52.910Z,1.73
2018-12-17T05:49:19.041Z,1.77
2018-12-17T05:51:45.180Z,1.87
2018-12-17T05:54:11.294Z,2.07
2018-12-17T05:56:37.468Z,2.20
2018-12-17T05:59:03.595Z,2.20
2018-12-17T06:01:29.737Z,2.00
2018-12-17T06:03:55.855Z,2.00
2018-12-17T06:06:21.991Z,2.30
2018-12-17T06:08:48.114Z,2.17
2018-12-17T06:11:14.257Z,2.10
2018-12-17T06:13:40.444Z,1.70
2018-12-17T06:16:06.585Z,2.03
2018-12-17T06:18:32.725Z,2.10
2018-12-17T06:20:58.995Z,2.23
2018-12-17T06:23:25.124Z,2.60
2018-12-17T06:25:51.230Z,2.20
2018-12-17T06:28:17.378Z,1.83
2018-12-17T06:30:43.490Z,2.27
2018-12-17T06:33:15.513Z,2.43
2018-12-17T06:35:37.759Z,1.87
2018-12-17T06:38:03.931Z,2.30
2018-12-17T06:40:30.066Z,2.20
2018-12-17T06:42:56.236Z,2.30
2018-12-17T06:45:22.378Z,2.17
2018-12-17T06:47:48.525Z,2.53
2018-12-17T06:50:14.643Z,2.30
2018-12-17T06:52:40.816Z,2.23
2018-12-17T06:55:06.960Z,2.17
2018-12-17T06:57:33.088Z,2.67
2018-12-17T06:59:59.199Z,2.80
2018-12-17T07:02:25.457Z,2.43
2018-12-17T07:04:51.585Z,2.53
2018-12-17T07:07:17.768Z,2.37
2018-12-17T07:09:43.897Z,2.83
2018-12-17T07:12:10.063Z,2.77
2018-12-17T07:14:36.591Z,2.23
2018-12-17T07:17:03.171Z,2.47
2018-12-17T07:19:29.324Z,2.03
2018-12-17T07:21:55.465Z,2.20
2018-12-17T07:24:21.634Z,2.27
2018-12-17T07:26:47.779Z,2.50
2018-12-17T07:29:13.918Z,2.40
2018-12-17T07:31:40.083Z,2.80
2018-12-17T07:34:06.234Z,2.50
2018-12-17T07:36:32.359Z,2.33
2018-12-17T07:38:58.495Z,2.43
2018-12-17T07:41:24.606Z,2.80
2018-12-17T07:43:50.875Z,2.20
2018-12-17T07:46:17.012Z,2.30
2018-12-17T07:48:43.148Z,2.40
2018-12-17T07:51:09.296Z,2.57
2018-12-17T07:53:35.425Z,2.83
2018-12-17T07:56:01.574Z,3.40
2018-12-17T07:58:27.720Z,3.00
2018-12-17T08:00:53.851Z,2.70
2018-12-17T08:03:19.989Z,2.93
2018-12-17T08:05:46.114Z,2.63
2018-12-17T08:08:12.256Z,2.20
2018-12-17T08:10:38.379Z,2.53
2018-12-17T08:13:05.071Z,3.23
2018-12-17T08:15:32.063Z,2.97
2018-12-17T08:18:21.375Z,3.10
2018-12-17T08:20:49.458Z,2.77
2018-12-17T08:23:16.044Z,2.97
2018-12-17T08:25:42.175Z,2.73
2018-12-17T08:28:08.307Z,3.07
2018-12-17T08:30:34.464Z,2.87
2018-12-17T08:33:00.581Z,3.67
2018-12-17T08:35:26.720Z,3.23
2018-12-17T08:37:52.863Z,3.13
2018-12-17T08:40:19.139Z,2.70
2018-12-17T08:42:45.279Z,2.60
2018-12-17T08:45:11.451Z,2.90
2018-12-17T08:47:37.583Z,3.27
2018-12-17T08:50:04.189Z,3.30
2018-12-17T08:52:30.320Z,3.00
2018-12-17T08:54:56.695Z,3.23
2018-12-17T08:57:22.816Z,3.47
2018-12-17T08:59:48.976Z,3.20
2018-12-17T09:02:15.118Z,3.40
2018-12-17T09:04:41.269Z,3.00
2018-12-17T09:07:07.431Z,3.30
2018-12-17T09:09:33.564Z,3.03
2018-12-17T09:11:59.709Z,3.33
2018-12-17T09:14:25.840Z,3.50
2018-12-17T09:16:51.982Z,3.43
2018-12-17T09:19:18.111Z,3.50
2018-12-17T09:21:44.263Z,3.70
2018-12-17T09:24:10.409Z,3.57
2018-12-17T09:26:36.565Z,3.93
2018-12-17T09:29:02.928Z,3.23
2018-12-17T09:31:29.084Z,3.70
2018-12-17T09:33:55.222Z,3.40
2018-12-17T09:36:21.539Z,3.90
2018-12-17T09:38:47.679Z,3.67
2018-12-17T09:41:13.804Z,3.67
2018-12-17T09:43:39.929Z,3.30
2018-12-17T09:46:06.200Z,3.70
2018-12-17T09:48:32.321Z,3.77
2018-12-17T09:50:58.499Z,3.43
2018-12-17T09:53:24.636Z,3.30
2018-12-17T09:55:50.760Z,3.33
2018-12-17T09:58:16.888Z,4.13
2018-12-17T10:00:43.021Z,3.70
2018-12-17T10:03:09.219Z,3.20
2018-12-17T10:05:35.346Z,3.83
2018-12-17T10:08:01.483Z,3.60
2018-12-17T10:10:27.648Z,3.67
2018-12-17T10:12:53.794Z,4.33
2018-12-17T10:15:19.920Z,4.07
2018-12-17T10:17:46.064Z,4.63
2018-12-17T10:20:12.196Z,3.13
2018-12-17T10:22:38.331Z,4.03
2018-12-17T10:25:04.579Z,4.27
2018-12-17T10:27:30.695Z,4.00
2018-12-17T10:29:56.824Z,3.80
2018-12-17T10:32:22.962Z,3.50
2018-12-17T10:34:49.120Z,3.70
2018-12-17T10:37:15.261Z,3.43
2018-12-17T10:39:41.403Z,3.80
2018-12-17T10:42:07.629Z,3.23
2018-12-17T10:44:33.764Z,3.70
2018-12-17T10:46:59.901Z,4.00
2018-12-17T10:49:26.028Z,4.50
2018-12-17T10:51:52.162Z,4.10
2018-12-17T10:54:18.308Z,3.80
2018-12-17T10:56:44.436Z,3.97
2018-12-17T10:59:10.575Z,3.37
2018-12-17T11:01:42.800Z,4.67
2018-12-17T11:04:10.379Z,4.17
2018-12-17T11:06:36.707Z,4.07
2018-12-17T11:09:05.504Z,3.87
2018-12-17T11:11:31.709Z,3.63
2018-12-17T11:13:57.918Z,3.90
2018-12-17T11:16:24.091Z,3.80
2018-12-17T11:18:50.235Z,3.47
2018-12-17T11:21:16.482Z,4.30
2018-12-17T11:23:42.626Z,4.00
2018-12-17T11:26:08.767Z,4.20
2018-12-17T11:28:34.922Z,4.47
2018-12-17T11:31:01.039Z,4.80
2018-12-17T11:33:27.194Z,4.90
2018-12-17T11:35:53.331Z,3.73
2018-12-17T11:38:19.450Z,4.07
2018-12-17T11:40:45.619Z,5.07
2018-12-17T11:43:11.735Z,4.30
2018-12-17T11:45:38.003Z,4.23
2018-12-17T11:48:04.190Z,4.37
2018-12-17T11:50:30.321Z,4.70
2018-12-17T11:52:56.466Z,4.70
2018-12-17T11:55:22.607Z,4.67
2018-12-17T11:57:55.520Z,4.80
2018-12-17T12:00:23.743Z,4.27
2018-12-17T12:02:49.875Z,5.20
2018-12-17T12:05:16.004Z,4.73
2018-12-17T12:07:42.135Z,4.67
2018-12-17T12:10:08.259Z,4.93
2018-12-17T12:12:34.372Z,4.83
2018-12-17T12:15:00.503Z,4.67
2018-12-17T12:17:26.625Z,4.67
2018-12-17T12:19:52.772Z,4.90
2018-12-17T12:22:18.920Z,4.73
2018-12-17T12:24:45.020Z,5.20
2018-12-17T12:27:11.194Z,5.50
2018-12-17T12:29:37.314Z,5.33
2018-12-17T12:32:03.486Z,5.17
2018-12-17T12:34:29.634Z,5.53
2018-12-17T12:36:55.755Z,5.73
2018-12-17T12:39:22.098Z,5.93
2018-12-17T12:41:48.256Z,5.63
2018-12-17T12:44:14.391Z,6.43
2018-12-17T12:46:40.507Z,6.47
2018-12-17T12:49:06.634Z,6.00
2018-12-17T12:51:33.056Z,6.10
2018-12-17T12:53:59.239Z,6.20
2018-12-17T12:56:25.409Z,5.57
2018-12-17T12:58:51.667Z,6.27
2018-12-17T13:01:17.803Z,6.23
2018-12-17T13:03:43.923Z,6.07
2018-12-17T13:06:10.070Z,6.00
2018-12-17T13:08:36.200Z,5.80
2018-12-17T13:11:02.371Z,5.40
2018-12-17T13:13:28.522Z,5.53
2018-12-17T13:15:54.647Z,5.50
2018-12-17T13:18:20.804Z,5.90
2018-12-17T13:20:46.932Z,5.70
2018-12-17T13:23:13.057Z,5.63
2018-12-17T13:25:39.727Z,6.13
2018-12-17T13:28:05.918Z,5.63
2018-12-17T13:30:32.182Z,6.13
2018-12-17T13:32:58.303Z,5.63
2018-12-17T13:35:24.431Z,6.80
2018-12-17T13:37:50.555Z,5.60
2018-12-17T13:40:16.767Z,7.10
2018-12-17T13:42:42.905Z,7.00
2018-12-17T13:45:09.211Z,6.27
2018-12-17T13:47:35.338Z,6.13
2018-12-17T13:50:03.647Z,6.17
2018-12-17T13:52:35.795Z,6.10
2018-12-17T13:55:01.972Z,6.33
2018-12-17T13:57:28.086Z,5.97
2018-12-17T13:59:54.224Z,6.27
2018-12-17T14:02:20.362Z,6.27
2018-12-17T14:04:46.487Z,5.97
2018-12-17T14:07:12.617Z,6.10
2018-12-17T14:09:40.815Z,5.97
2018-12-17T14:12:06.959Z,5.70
2018-12-17T14:14:33.070Z,5.87
2018-12-17T14:17:05.426Z,7.10
2018-12-17T14:19:32.614Z,6.73
2018-12-17T14:21:58.779Z,6.33
2018-12-17T14:24:24.924Z,6.63
2018-12-17T14:26:51.062Z,6.70
2018-12-17T14:29:17.176Z,6.77
2018-12-17T14:31:43.315Z,6.53
2018-12-17T14:34:09.448Z,7.60
2018-12-17T14:36:35.572Z,6.53
2018-12-17T14:39:03.082Z,7.47
2018-12-17T14:41:29.223Z,6.93
2018-12-17T14:43:57.399Z,7.40
2018-12-17T14:46:23.511Z,6.97
2018-12-17T14:48:49.639Z,6.33
2018-12-17T14:51:15.762Z,7.23
2018-12-17T14:53:41.906Z,7.03
2018-12-17T14:56:08.044Z,7.50
2018-12-17T14:58:34.199Z,7.70
2018-12-17T15:01:00.357Z,7.80
2018-12-17T15:03:26.472Z,6.63
2018-12-17T15:05:52.611Z,7.57
2018-12-17T15:08:18.719Z,7.40
2018-12-17T15:10:44.887Z,6.60
2018-12-17T15:13:11.052Z,6.80
2018-12-17T15:15:37.212Z,7.60
2018-12-17T15:18:03.390Z,8.17
2018-12-17T15:20:29.591Z,7.77
2018-12-17T15:22:55.721Z,7.37
2018-12-17T15:25:21.877Z,7.60
2018-12-17T15:27:48.053Z,7.73
2018-12-17T15:30:14.384Z,7.20
2018-12-17T15:32:40.580Z,7.83
2018-12-17T15:35:06.724Z,7.40
2018-12-17T15:37:32.845Z,6.70
2018-12-17T15:39:59.128Z,7.10
2018-12-17T15:42:25.269Z,6.73
2018-12-17T15:44:51.394Z,6.57
2018-12-17T15:47:17.535Z,5.80
2018-12-17T15:49:43.659Z,6.53
2018-12-17T15:52:09.795Z,6.00
2018-12-17T15:54:35.906Z,5.83
2018-12-17T15:57:02.040Z,6.00
2018-12-17T15:59:28.305Z,5.73
2018-12-17T16:01:54.475Z,7.10
2018-12-17T16:04:20.593Z,5.57
2018-12-17T16:06:46.733Z,6.60
2018-12-17T16:09:12.863Z,5.90
2018-12-17T16:11:39.000Z,6.07
2018-12-17T16:14:05.116Z,5.80
2018-12-17T16:16:31.242Z,6.63
2018-12-17T16:18:57.407Z,5.60
2018-12-17T16:21:23.526Z,5.50
2018-12-17T16:23:49.655Z,5.63
2018-12-17T16:26:15.776Z,6.50
2018-12-17T16:28:41.904Z,6.17
2018-12-17T16:31:08.027Z,6.00
2018-12-17T16:33:34.203Z,6.37
2018-12-17T16:36:00.599Z,5.30
2018-12-17T16:38:26.747Z,5.33
2018-12-17T16:40:52.889Z,6.00
2018-12-17T16:43:19.079Z,6.00
2018-12-17T16:45:45.469Z,5.63
2018-12-17T16:48:11.601Z,5.90
2018-12-17T16:50:37.753Z,5.67
2018-12-17T16:53:03.909Z,5.37
2018-12-17T16:55:30.039Z,6.70
2018-12-17T16:57:56.207Z,6.33
2018-12-17T17:00:22.326Z,6.57
2018-12-17T17:02:48.539Z,7.10
2018-12-17T17:05:14.648Z,6.70
2018-12-17T17:07:40.758Z,6.77
2018-12-17T17:10:08.250Z,6.37
2018-12-17T17:12:34.399Z,7.17
2018-12-17T17:15:00.573Z,7.47
2018-12-17T17:17:26.707Z,7.30
2018-12-17T17:19:52.839Z,7.90
2018-12-17T17:22:18.978Z,7.73
2018-12-17T17:24:45.117Z,7.80
2018-12-17T17:27:11.394Z,7.33
2018-12-17T17:29:37.536Z,7.33
2018-12-17T17:32:03.684Z,7.30
2018-12-17T17:34:29.823Z,7.20
2018-12-17T17:36:55.959Z,8.27
2018-12-17T17:39:22.177Z,7.53
2018-12-17T17:41:48.391Z,7.67
2018-12-17T17:44:14.540Z,8.00
2018-12-17T17:46:40.672Z,7.10
2018-12-17T17:49:06.838Z,8.80
2018-12-17T17:51:33.003Z,6.50
2018-12-17T17:53:59.157Z,8.67
2018-12-17T17:56:25.275Z,7.73
2018-12-17T17:58:51.411Z,7.63
2018-12-17T18:01:17.551Z,7.83
2018-12-17T18:03:43.684Z,8.03
2018-12-17T18:06:16.044Z,8.17
2018-12-17T18:08:37.978Z,7.50
2018-12-17T18:11:04.122Z,7.53
2018-12-17T18:13:30.264Z,7.40
2018-12-17T18:15:56.388Z,8.50
2018-12-17T18:18:22.508Z,8.40
2018-12-17T18:20:48.668Z,7.70
2018-12-17T18:23:14.779Z,7.87
2018-12-17T18:25:40.931Z,8.17
2018-12-17T18:28:07.071Z,7.70
2018-12-17T18:30:33.217Z,8.60
2018-12-17T18:32:59.339Z,7.67
2018-12-17T18:35:25.494Z,8.30
2018-12-17T18:37:51.622Z,7.57
2018-12-17T18:40:17.749Z,7.90
2018-12-17T18:42:43.880Z,7.17
2018-12-17T18:45:10.295Z,7.07
2018-12-17T18:47:36.427Z,7.90
2018-12-17T18:50:03.191Z,8.33
2018-12-17T18:52:29.327Z,9.30
2018-12-17T18:54:55.432Z,7.60
2018-12-17T18:57:21.563Z,8.23
2018-12-17T18:59:47.710Z,7.80
2018-12-17T19:02:13.859Z,8.53
2018-12-17T19:04:40.008Z,8.20
2018-12-17T19:07:06.141Z,9.17
2018-12-17T19:09:32.278Z,8.53
2018-12-17T19:11:58.399Z,8.10
2018-12-17T19:14:24.530Z,8.27
2018-12-17T19:16:50.663Z,8.13
2018-12-17T19:19:16.806Z,8.73
2018-12-17T19:21:42.939Z,8.03
2018-12-17T19:24:09.052Z,7.67
2018-12-17T19:26:35.166Z,9.13
2018-12-17T19:29:01.307Z,7.50
2018-12-17T19:31:34.380Z,8.07
2018-12-17T19:33:55.660Z,8.10
2018-12-17T19:36:21.783Z,8.07
2018-12-17T19:38:47.930Z,8.33
2018-12-17T19:41:14.084Z,7.83
2018-12-17T19:43:40.228Z,7.93
2018-12-17T19:46:06.416Z,8.63
2018-12-17T19:48:32.527Z,8.00
2018-12-17T19:50:58.674Z,8.00
2018-12-17T19:53:24.811Z,8.50
2018-12-17T19:55:50.939Z,8.33
2018-12-17T19:58:17.087Z,7.67
2018-12-17T20:00:43.206Z,9.30
2018-12-17T20:03:09.357Z,8.80
2018-12-17T20:05:35.502Z,9.60
2018-12-17T20:08:01.620Z,9.23
2018-12-17T20:10:27.767Z,9.37
2018-12-17T20:12:53.903Z,8.57
2018-12-17T20:15:20.047Z,9.00
2018-12-17T20:17:46.180Z,9.60
2018-12-17T20:20:12.323Z,8.53
2018-12-17T20:22:38.442Z,9.27
2018-12-17T20:25:04.602Z,8.53
2018-12-17T20:27:30.742Z,8.43
2018-12-17T20:29:56.899Z,8.00
2018-12-17T20:32:23.018Z,9.47
2018-12-17T20:34:49.151Z,9.47
2018-12-17T20:37:15.267Z,8.63
2018-12-17T20:39:42.193Z,9.70
2018-12-17T20:42:08.323Z,9.37
2018-12-17T20:44:34.610Z,8.63
2018-12-17T20:47:00.715Z,9.50
2018-12-17T20:49:26.823Z,9.37
2018-12-17T20:51:52.951Z,9.30
2018-12-17T20:54:19.103Z,8.73
2018-12-17T20:56:45.239Z,9.07
2018-12-17T20:59:11.361Z,9.03
2018-12-17T21:01:37.544Z,8.87
2018-12-17T21:04:03.691Z,8.43
2018-12-17T21:06:29.813Z,8.23
2018-12-17T21:08:55.967Z,9.33
2018-12-17T21:11:22.119Z,9.80
2018-12-17T21:13:48.233Z,9.13
2018-12-17T21:16:14.361Z,9.50
2018-12-17T21:18:41.403Z,9.90
2018-12-17T21:21:07.545Z,9.03
2018-12-17T21:23:33.803Z,9.47
2018-12-17T21:25:59.954Z,9.03
2018-12-17T21:28:26.068Z,8.70
2018-12-17T21:30:52.191Z,8.80
2018-12-17T21:33:18.308Z,8.90
2018-12-17T21:35:45.186Z,9.43
2018-12-17T21:38:11.311Z,9.27
2018-12-17T21:40:37.443Z,9.47
2018-12-17T21:43:03.611Z,9.23
2018-12-17T21:45:29.733Z,8.90
2018-12-17T21:47:55.911Z,8.30
2018-12-17T21:50:22.031Z,8.57
2018-12-17T21:52:48.156Z,9.10
2018-12-17T21:55:14.287Z,9.20
2018-12-17T21:57:40.428Z,8.57
2018-12-17T22:00:07.103Z,9.00
2018-12-17T22:02:33.248Z,9.17
2018-12-17T22:04:59.369Z,9.97
2018-12-17T22:07:25.519Z,9.47
2018-12-17T22:09:51.671Z,9.10
2018-12-17T22:12:17.823Z,9.83
2018-12-17T22:14:43.959Z,9.90
2018-12-17T22:17:10.083Z,8.33
2018-12-17T22:19:36.215Z,9.20
2018-12-17T22:22:02.473Z,9.90
2018-12-17T22:24:28.575Z,9.07
2018-12-17T22:26:54.747Z,8.90
2018-12-17T22:29:20.888Z,9.17
2018-12-17T22:31:47.015Z,9.30
2018-12-17T22:34:13.135Z,9.03
2018-12-17T22:36:39.255Z,9.37
2018-12-17T22:39:05.524Z,8.63
2018-12-17T22:41:32.477Z,9.80
2018-12-17T22:43:58.655Z,9.27
2018-12-17T22:46:24.774Z,9.67
2018-12-17T22:48:50.907Z,10.17
2018-12-17T22:51:17.049Z,10.37
2018-12-17T22:53:43.175Z,9.73
2018-12-17T22:56:09.283Z,9.57
2018-12-17T22:58:35.412Z,10.00
2018-12-17T23:01:01.786Z,10.10
2018-12-17T23:03:27.947Z,10.17
2018-12-17T23:05:54.183Z,9.60
2018-12-17T23:08:20.370Z,10.53
2018-12-17T23:10:58.769Z,10.13
2018-12-17T23:13:37.214Z,10.20
2018-12-17T23:16:15.681Z,9.73
2018-12-17T23:18:41.562Z,9.63
2018-12-17T23:21:07.927Z,9.63
2018-12-17T23:23:34.079Z,9.73
2018-12-17T23:26:00.193Z,9.43
2018-12-17T23:28:26.471Z,10.57
2018-12-17T23:30:52.615Z,11.27
2018-12-17T23:33:18.746Z,9.90
2018-12-17T23:35:44.890Z,10.73
2018-12-17T23:38:10.995Z,10.63
2018-12-17T23:40:37.159Z,11.03
2018-12-17T23:43:03.290Z,11.33
2018-12-17T23:45:29.431Z,11.67
2018-12-17T23:47:55.546Z,9.90
2018-12-17T23:50:21.695Z,11.00
2018-12-17T23:52:47.800Z,10.23
2018-12-17T23:55:13.951Z,10.57
2018-12-17T23:57:40.111Z,10.23
